createdAt,value
2019-04-11T00:00:57.645Z,3.10
2019-04-11T00:01:58.656Z,3.07
2019-04-11T00:03:00.831Z,3.12
2019-04-11T00:04:01.908Z,3.13
2019-04-11T00:05:02.728Z,3.16
2019-04-11T00:06:04.108Z,3.12
2019-04-11T00:07:05.879Z,3.16
2019-04-11T00:08:07.905Z,3.10
2019-04-11T00:09:08.235Z,3.16
2019-04-11T00:10:10.228Z,3.12
2019-04-11T00:11:11.538Z,3.10
2019-04-11T00:12:12.441Z,3.15
2019-04-11T00:13:19.819Z,3.13
2019-04-11T00:14:15.874Z,3.13
2019-04-11T00:15:16.295Z,3.10
2019-04-11T00:16:17.677Z,3.15
2019-04-11T00:17:19.586Z,3.12
2019-04-11T00:18:20.775Z,3.12
2019-04-11T00:19:21.761Z,3.17
2019-04-11T00:20:24.237Z,3.15
2019-04-11T00:21:24.612Z,3.12
2019-04-11T00:22:25.832Z,3.16
2019-04-11T00:23:27.212Z,3.12
2019-04-11T00:24:29.208Z,3.12
2019-04-11T00:25:29.932Z,3.12
2019-04-11T00:26:31.310Z,3.01
2019-04-11T00:27:32.961Z,3.04
2019-04-11T00:28:34.099Z,3.04
2019-04-11T00:29:36.473Z,3.01
2019-04-11T00:30:36.712Z,3.07
2019-04-11T00:31:39.033Z,2.97
2019-04-11T00:32:39.438Z,2.95
2019-04-11T00:33:40.820Z,2.97
2019-04-11T00:34:42.723Z,3.02
2019-04-11T00:35:43.935Z,2.84
2019-04-11T00:36:44.884Z,2.97
2019-04-11T00:37:47.401Z,3.02
2019-04-11T00:38:47.840Z,2.89
2019-04-11T00:39:49.898Z,3.02
2019-04-11T00:40:51.239Z,2.84
2019-04-11T00:41:52.325Z,2.90
2019-04-11T00:42:52.985Z,2.83
2019-04-11T00:43:54.618Z,2.94
2019-04-11T00:44:57.026Z,2.79
2019-04-11T00:45:58.100Z,2.86
2019-04-11T00:46:58.514Z,2.90
2019-04-11T00:47:59.743Z,2.81
2019-04-11T00:49:01.886Z,2.87
2019-04-11T00:50:04.062Z,2.84
2019-04-11T00:51:03.811Z,2.80
2019-04-11T00:52:05.196Z,2.86
2019-04-11T00:53:06.598Z,2.79
2019-04-11T00:54:08.708Z,2.80
2019-04-11T00:55:09.301Z,2.77
2019-04-11T00:56:10.889Z,2.73
2019-04-11T00:57:12.709Z,2.73
2019-04-11T00:58:13.747Z,2.84
2019-04-11T00:59:14.700Z,2.74
2019-04-11T01:00:16.081Z,2.76
2019-04-11T01:01:17.697Z,2.77
2019-04-11T01:02:18.827Z,2.76
2019-04-11T01:03:20.237Z,2.76
2019-04-11T01:04:21.590Z,2.66
2019-04-11T01:05:23.538Z,2.63
2019-04-11T01:06:24.325Z,2.59
2019-04-11T01:07:26.791Z,2.65
2019-04-11T01:08:27.377Z,2.59
2019-04-11T01:09:28.460Z,2.69
2019-04-11T01:10:29.977Z,2.61
2019-04-11T01:11:32.013Z,2.48
2019-04-11T01:12:32.421Z,2.61
2019-04-11T01:13:42.565Z,2.50
2019-04-11T01:14:37.105Z,2.50
2019-04-11T01:15:36.505Z,2.45
2019-04-11T01:16:38.846Z,2.48
2019-04-11T01:17:39.281Z,2.43
2019-04-11T01:18:40.614Z,2.43
2019-04-11T01:19:42.632Z,2.48
2019-04-11T01:20:43.866Z,2.38
2019-04-11T01:21:44.683Z,2.38
2019-04-11T01:22:46.601Z,2.38
2019-04-11T01:23:47.401Z,2.33
2019-04-11T01:24:48.778Z,2.32
2019-04-11T01:25:50.174Z,2.27
2019-04-11T01:26:51.791Z,2.30
2019-04-11T01:27:52.894Z,2.25
2019-04-11T01:28:55.328Z,2.29
2019-04-11T01:29:55.703Z,2.26
2019-04-11T01:30:57.525Z,2.22
2019-04-11T01:31:58.304Z,2.20
2019-04-11T01:32:59.686Z,2.27
2019-04-11T01:34:02.274Z,2.18
2019-04-11T01:35:02.405Z,2.11
2019-04-11T01:36:04.770Z,2.02
2019-04-11T01:37:05.135Z,2.18
2019-04-11T01:38:06.502Z,2.12
2019-04-11T01:39:08.491Z,2.08
2019-04-11T01:40:09.859Z,2.12
2019-04-11T01:41:10.572Z,2.00
2019-04-11T01:42:13.139Z,1.98
2019-04-11T01:43:13.557Z,2.02
2019-04-11T01:44:14.648Z,2.01
2019-04-11T01:45:16.957Z,2.00
2019-04-11T01:46:18.051Z,1.93
2019-04-11T01:47:18.710Z,2.09
2019-04-11T01:48:20.095Z,2.00
2019-04-11T01:49:21.903Z,1.95
2019-04-11T01:50:23.051Z,1.93
2019-04-11T01:51:25.356Z,1.95
2019-04-11T01:52:26.527Z,1.88
2019-04-11T01:53:26.888Z,1.93
2019-04-11T01:54:28.238Z,1.85
2019-04-11T01:55:29.616Z,1.90
2019-04-11T01:56:31.455Z,1.74
2019-04-11T01:57:32.335Z,1.85
2019-04-11T01:58:33.722Z,1.72
2019-04-11T01:59:35.438Z,1.79
2019-04-11T02:00:36.518Z,1.72
2019-04-11T02:01:38.977Z,1.74
2019-04-11T02:02:39.151Z,1.72
2019-04-11T02:03:41.416Z,1.74
2019-04-11T02:04:41.868Z,1.67
2019-04-11T02:05:43.915Z,1.70
2019-04-11T02:06:45.833Z,1.67
2019-04-11T02:07:46.962Z,1.74
2019-04-11T02:08:47.981Z,1.67
2019-04-11T02:09:50.413Z,1.61
2019-04-11T02:10:50.861Z,1.64
2019-04-11T02:11:52.088Z,1.65
2019-04-11T02:12:53.428Z,1.64
2019-04-11T02:14:05.085Z,1.63
2019-04-11T02:14:56.152Z,1.57
2019-04-11T02:15:58.394Z,1.56
2019-04-11T02:16:59.292Z,1.50
2019-04-11T02:18:01.243Z,1.54
2019-04-11T02:19:01.647Z,1.39
2019-04-11T02:20:02.907Z,1.57
2019-04-11T02:21:05.234Z,1.46
2019-04-11T02:22:06.489Z,1.53
2019-04-11T02:23:07.006Z,1.46
2019-04-11T02:24:08.400Z,1.39
2019-04-11T02:25:09.779Z,1.47
2019-04-11T02:26:11.481Z,1.47
2019-04-11T02:27:12.619Z,1.44
2019-04-11T02:28:14.715Z,1.47
2019-04-11T02:29:15.202Z,1.42
2019-04-11T02:30:18.329Z,1.44
2019-04-11T02:31:19.563Z,1.26
2019-04-11T02:32:20.838Z,1.42
2019-04-11T02:33:21.758Z,1.42
2019-04-11T02:34:23.379Z,1.42
2019-04-11T02:35:24.247Z,1.39
2019-04-11T02:36:25.024Z,1.36
2019-04-11T02:37:26.325Z,1.34
2019-04-11T02:38:28.363Z,1.34
2019-04-11T02:39:30.741Z,1.28
2019-04-11T02:40:30.634Z,1.29
2019-04-11T02:41:32.024Z,1.25
2019-04-11T02:42:32.981Z,1.28
2019-04-11T02:43:34.213Z,1.31
2019-04-11T02:44:52.277Z,1.20
2019-04-11T02:45:49.168Z,1.24
2019-04-11T02:46:47.889Z,1.21
2019-04-11T02:47:41.111Z,1.21
2019-04-11T02:48:40.893Z,1.25
2019-04-11T02:49:43.461Z,1.25
2019-04-11T02:50:43.548Z,1.20
2019-04-11T02:51:44.964Z,1.18
2019-04-11T02:52:47.197Z,1.24
2019-04-11T02:53:47.459Z,1.20
2019-04-11T02:54:49.342Z,1.18
2019-04-11T02:55:51.849Z,1.11
2019-04-11T02:56:52.902Z,1.20
2019-04-11T02:57:54.173Z,1.14
2019-04-11T02:58:54.560Z,1.17
2019-04-11T02:59:56.043Z,1.13
2019-04-11T03:01:00.294Z,1.20
2019-04-11T03:01:58.275Z,1.11
2019-04-11T03:03:01.161Z,1.17
2019-04-11T03:04:01.901Z,1.13
2019-04-11T03:05:02.897Z,1.11
2019-04-11T03:06:04.456Z,1.16
2019-04-11T03:07:05.912Z,1.17
2019-04-11T03:08:10.617Z,1.10
2019-04-11T03:09:07.815Z,1.07
2019-04-11T03:10:09.905Z,1.13
2019-04-11T03:11:10.832Z,1.08
2019-04-11T03:12:13.259Z,1.11
2019-04-11T03:13:13.237Z,1.14
2019-04-11T03:14:16.282Z,1.13
2019-04-11T03:15:32.080Z,1.06
2019-04-11T03:16:28.133Z,1.06
2019-04-11T03:17:23.080Z,1.08
2019-04-11T03:18:42.448Z,1.10
2019-04-11T03:19:35.737Z,1.13
2019-04-11T03:20:31.709Z,1.08
2019-04-11T03:21:24.459Z,1.08
2019-04-11T03:22:26.557Z,1.08
2019-04-11T03:23:27.860Z,1.02
2019-04-11T03:24:29.498Z,0.96
2019-04-11T03:25:30.500Z,1.04
2019-04-11T03:26:31.074Z,1.06
2019-04-11T03:27:32.595Z,1.04
2019-04-11T03:28:34.013Z,0.92
2019-04-11T03:29:36.168Z,1.07
2019-04-11T03:30:54.063Z,0.92
2019-04-11T03:34:24.893Z,1.00
2019-04-11T03:37:24.061Z,0.96
2019-04-11T03:38:05.820Z,0.89
2019-04-11T03:39:11.358Z,0.92
2019-04-11T03:40:06.029Z,0.98
2019-04-11T03:41:12.526Z,0.88
2019-04-11T03:42:09.539Z,0.95
2019-04-11T03:43:06.347Z,0.90
2019-04-11T03:44:04.315Z,0.86
2019-04-11T03:45:15.304Z,0.88
2019-04-11T03:46:16.378Z,0.86
2019-04-11T03:47:10.126Z,0.92
2019-04-11T03:48:12.469Z,0.74
2019-04-11T03:49:15.869Z,0.78
2019-04-11T03:50:08.365Z,0.88
2019-04-11T03:51:04.771Z,0.84
2019-04-11T03:52:08.129Z,0.78
2019-04-11T03:53:09.379Z,0.77
2019-04-11T03:54:09.630Z,0.84
2019-04-11T03:55:11.086Z,0.80
2019-04-11T03:56:12.155Z,0.82
2019-04-11T03:57:13.384Z,0.84
2019-04-11T03:58:15.487Z,0.78
2019-04-11T03:59:16.604Z,0.78
2019-04-11T04:00:16.675Z,0.82
2019-04-11T04:01:18.405Z,0.82
2019-04-11T04:02:20.251Z,0.80
2019-04-11T04:03:22.295Z,0.80
2019-04-11T04:04:23.399Z,0.82
2019-04-11T04:05:23.818Z,0.77
2019-04-11T04:06:25.577Z,0.81
2019-04-11T04:07:27.661Z,0.80
2019-04-11T04:08:28.824Z,0.74
2019-04-11T04:09:29.358Z,0.74
2019-04-11T04:10:30.015Z,0.72
2019-04-11T04:11:32.608Z,0.75
2019-04-11T04:12:33.635Z,0.72
2019-04-11T04:13:34.539Z,0.72
2019-04-11T04:14:36.953Z,0.70
2019-04-11T04:15:51.613Z,0.60
2019-04-11T04:16:43.211Z,0.67
2019-04-11T04:17:41.162Z,0.70
2019-04-11T04:18:40.865Z,0.70
2019-04-11T04:19:43.698Z,0.64
2019-04-11T04:20:43.909Z,0.67
2019-04-11T04:21:44.945Z,0.64
2019-04-11T04:22:48.089Z,0.67
2019-04-11T04:23:49.466Z,0.67
2019-04-11T04:24:49.687Z,0.67
2019-04-11T04:25:51.509Z,0.71
2019-04-11T04:26:52.635Z,0.67
2019-04-11T04:27:54.571Z,0.64
2019-04-11T04:28:55.392Z,0.64
2019-04-11T04:29:57.741Z,0.70
2019-04-11T04:30:57.936Z,0.67
2019-04-11T04:31:59.546Z,0.71
2019-04-11T04:33:00.582Z,0.72
2019-04-11T04:34:01.961Z,0.72
2019-04-11T04:35:02.766Z,0.72
2019-04-11T04:36:06.603Z,0.71
2019-04-11T04:37:05.864Z,0.77
2019-04-11T04:38:07.422Z,0.70
2019-04-11T04:39:08.686Z,0.80
2019-04-11T04:40:24.109Z,0.86
2019-04-11T04:41:21.098Z,0.81
2019-04-11T04:42:23.479Z,0.77
2019-04-11T04:43:14.460Z,0.80
2019-04-11T04:44:14.664Z,0.77
2019-04-11T04:45:16.358Z,0.80
2019-04-11T04:46:30.807Z,0.81
2019-04-11T04:47:24.994Z,0.86
2019-04-11T04:48:23.076Z,0.81
2019-04-11T04:49:21.487Z,0.72
2019-04-11T04:50:24.340Z,0.89
2019-04-11T04:51:24.516Z,0.75
2019-04-11T04:52:27.232Z,0.92
2019-04-11T04:53:28.254Z,0.95
2019-04-11T04:54:28.374Z,0.92
2019-04-11T04:55:30.326Z,0.93
2019-04-11T04:56:32.254Z,0.93
2019-04-11T04:57:35.086Z,1.06
2019-04-11T04:58:33.937Z,0.99
2019-04-11T04:59:37.416Z,1.02
2019-04-11T05:00:37.493Z,1.06
2019-04-11T05:01:39.157Z,1.07
2019-04-11T05:02:39.744Z,1.00
2019-04-11T05:03:40.873Z,1.14
2019-04-11T05:04:43.447Z,1.07
2019-04-11T05:05:44.289Z,1.20
2019-04-11T05:06:46.769Z,1.11
2019-04-11T05:07:46.861Z,1.24
2019-04-11T05:08:47.291Z,1.20
2019-04-11T05:09:50.131Z,1.29
2019-04-11T05:10:51.344Z,1.21
2019-04-11T05:11:52.856Z,1.31
2019-04-11T05:12:52.545Z,1.38
2019-04-11T05:13:54.499Z,1.44
2019-04-11T05:14:56.023Z,1.46
2019-04-11T05:16:06.846Z,1.29
2019-04-11T05:16:58.102Z,1.46
2019-04-11T05:17:59.895Z,1.46
2019-04-11T05:19:00.882Z,1.43
2019-04-11T05:20:02.887Z,1.46
2019-04-11T05:21:03.399Z,1.46
2019-04-11T05:22:04.793Z,1.39
2019-04-11T05:23:06.368Z,1.38
2019-04-11T05:24:07.534Z,1.43
2019-04-11T05:25:08.923Z,1.42
2019-04-11T05:26:10.946Z,1.54
2019-04-11T05:27:12.560Z,1.53
2019-04-11T05:28:13.968Z,1.39
2019-04-11T05:29:15.211Z,1.46
2019-04-11T05:30:16.731Z,1.56
2019-04-11T05:31:17.055Z,1.61
2019-04-11T05:32:19.677Z,1.63
2019-04-11T05:33:19.869Z,1.63
2019-04-11T05:34:21.236Z,1.70
2019-04-11T05:35:22.788Z,1.81
2019-04-11T05:36:24.717Z,1.75
2019-04-11T05:37:25.335Z,1.82
2019-04-11T05:38:27.307Z,1.92
2019-04-11T05:39:28.066Z,2.04
2019-04-11T05:40:30.901Z,2.12
2019-04-11T05:41:31.356Z,2.27
2019-04-11T05:42:33.299Z,2.33
2019-04-11T05:43:37.371Z,2.45
2019-04-11T05:44:37.590Z,2.53
2019-04-11T05:45:36.304Z,2.59
2019-04-11T05:46:49.102Z,2.61
2019-04-11T05:47:39.296Z,2.74
2019-04-11T05:48:41.026Z,2.95
2019-04-11T05:49:42.449Z,2.94
2019-04-11T05:50:46.312Z,3.10
2019-04-11T05:51:47.434Z,3.12
2019-04-11T05:52:46.506Z,3.22
2019-04-11T05:53:49.885Z,3.22
2019-04-11T05:54:49.730Z,3.30
2019-04-11T05:55:50.994Z,3.31
2019-04-11T05:56:55.025Z,3.45
2019-04-11T05:57:54.395Z,3.46
2019-04-11T05:58:55.588Z,3.67
2019-04-11T05:59:56.543Z,3.78
2019-04-11T06:00:58.287Z,3.95
2019-04-11T06:02:01.660Z,4.07
2019-04-11T06:03:00.068Z,4.26
2019-04-11T06:04:01.992Z,4.39
2019-04-11T06:05:02.968Z,4.35
2019-04-11T06:06:04.787Z,4.61
2019-04-11T06:07:07.849Z,4.86
2019-04-11T06:08:06.885Z,4.91
2019-04-11T06:09:10.138Z,5.12
2019-04-11T06:10:11.374Z,5.23
2019-04-11T06:11:14.431Z,5.32
2019-04-11T06:12:13.579Z,5.37
2019-04-11T06:13:13.674Z,5.45
2019-04-11T06:14:15.218Z,5.49
2019-04-11T06:15:16.664Z,5.59
2019-04-11T06:16:18.802Z,5.69
2019-04-11T06:17:19.128Z,5.69
2019-04-11T06:18:27.079Z,5.63
2019-04-11T06:19:22.830Z,5.65
2019-04-11T06:20:25.111Z,5.56
2019-04-11T06:21:24.596Z,5.37
2019-04-11T06:22:25.989Z,5.40
2019-04-11T06:23:27.528Z,5.37
2019-04-11T06:24:28.932Z,5.35
2019-04-11T06:25:30.940Z,5.33
2019-04-11T06:26:32.407Z,5.24
2019-04-11T06:27:34.149Z,5.29
2019-04-11T06:28:34.337Z,5.38
2019-04-11T06:29:36.879Z,5.51
2019-04-11T06:30:37.070Z,5.49
2019-04-11T06:31:38.461Z,5.59
2019-04-11T06:32:40.286Z,5.67
2019-04-11T06:33:41.215Z,5.62
2019-04-11T06:34:43.776Z,5.73
2019-04-11T06:35:44.169Z,5.87
2019-04-11T06:36:46.572Z,6.17
2019-04-11T06:37:46.706Z,6.28
2019-04-11T06:38:49.294Z,6.42
2019-04-11T06:39:49.487Z,6.55
2019-04-11T06:40:51.123Z,6.54
2019-04-11T06:41:52.134Z,6.69
2019-04-11T06:42:53.859Z,6.79
2019-04-11T06:43:56.350Z,6.93
2019-04-11T06:44:56.841Z,7.05
2019-04-11T06:45:58.832Z,7.16
2019-04-11T06:47:01.128Z,7.32
2019-04-11T06:48:01.591Z,7.32
2019-04-11T06:49:02.979Z,7.54
2019-04-11T06:50:04.372Z,7.50
2019-04-11T06:51:06.010Z,7.57
2019-04-11T06:52:07.117Z,7.51
2019-04-11T06:53:08.940Z,7.69
2019-04-11T06:54:09.863Z,7.79
2019-04-11T06:55:11.253Z,7.95
2019-04-11T06:56:12.644Z,7.94
2019-04-11T06:57:14.045Z,8.04
2019-04-11T06:58:15.441Z,8.12
2019-04-11T06:59:16.819Z,8.40
2019-04-11T07:00:18.214Z,8.61
2019-04-11T07:01:20.233Z,8.85
2019-04-11T07:02:23.308Z,8.91
2019-04-11T07:03:25.479Z,8.91
2019-04-11T07:04:23.678Z,8.83
2019-04-11T07:05:25.072Z,8.47
2019-04-11T07:06:27.202Z,8.25
2019-04-11T07:07:28.976Z,7.99
2019-04-11T07:08:30.018Z,7.74
2019-04-11T07:09:30.968Z,7.57
2019-04-11T07:10:31.883Z,7.24
2019-04-11T07:11:34.128Z,7.09
2019-04-11T07:12:34.955Z,6.93
2019-04-11T07:13:37.068Z,6.82
2019-04-11T07:14:37.571Z,6.81
2019-04-11T07:15:39.780Z,6.89
2019-04-11T07:16:40.413Z,6.73
2019-04-11T07:17:41.405Z,6.68
2019-04-11T07:18:42.797Z,6.55
2019-04-11T07:19:44.488Z,6.58
2019-04-11T07:20:45.763Z,6.57
2019-04-11T07:21:46.881Z,6.55
2019-04-11T07:22:48.820Z,6.53
2019-04-11T07:23:49.627Z,6.43
2019-04-11T07:24:51.022Z,6.36
2019-04-11T07:25:52.413Z,6.40
2019-04-11T07:26:54.351Z,6.51
2019-04-11T07:27:55.159Z,6.42
2019-04-11T07:28:56.596Z,6.43
2019-04-11T07:29:58.493Z,6.42
2019-04-11T07:31:00.307Z,6.27
2019-04-11T07:32:00.895Z,6.32
2019-04-11T07:33:02.191Z,6.16
2019-04-11T07:34:03.358Z,6.13
2019-04-11T07:35:04.958Z,6.03
2019-04-11T07:36:06.086Z,5.95
2019-04-11T07:37:07.481Z,5.88
2019-04-11T07:38:09.780Z,5.85
2019-04-11T07:39:10.216Z,5.75
2019-04-11T07:40:12.990Z,5.75
2019-04-11T07:41:13.003Z,5.78
2019-04-11T07:42:15.728Z,5.74
2019-04-11T07:43:17.122Z,5.73
2019-04-11T07:44:17.579Z,5.66
2019-04-11T07:45:18.442Z,5.65
2019-04-11T07:46:19.893Z,5.75
2019-04-11T07:47:24.581Z,5.73
2019-04-11T07:48:22.543Z,5.70
2019-04-11T07:49:24.432Z,5.74
2019-04-11T07:50:26.135Z,5.62
2019-04-11T07:51:27.539Z,5.70
2019-04-11T07:52:30.165Z,5.60
2019-04-11T07:53:30.463Z,5.59
2019-04-11T07:54:30.697Z,5.65
2019-04-11T07:55:32.257Z,5.77
2019-04-11T07:56:33.446Z,5.65
2019-04-11T07:57:34.840Z,5.70
2019-04-11T07:58:37.334Z,5.70
2019-04-11T07:59:37.708Z,5.73
2019-04-11T08:00:44.086Z,5.75
2019-04-11T08:01:40.389Z,5.81
2019-04-11T08:02:41.680Z,5.69
2019-04-11T08:03:43.064Z,5.75
2019-04-11T08:04:45.126Z,5.75
2019-04-11T08:05:46.672Z,5.67
2019-04-11T08:06:47.884Z,5.74
2019-04-11T08:07:49.081Z,5.74
2019-04-11T08:08:49.862Z,5.77
2019-04-11T08:09:51.253Z,5.81
2019-04-11T08:10:52.679Z,5.85
2019-04-11T08:11:54.062Z,5.84
2019-04-11T08:12:56.154Z,5.88
2019-04-11T08:13:56.796Z,5.96
2019-04-11T08:14:59.262Z,6.01
2019-04-11T08:15:59.550Z,6.16
2019-04-11T08:17:01.560Z,6.21
2019-04-11T08:18:02.298Z,6.36
2019-04-11T08:19:03.706Z,6.51
2019-04-11T08:20:05.103Z,6.72
2019-04-11T08:21:06.462Z,6.86
2019-04-11T08:22:08.407Z,7.05
2019-04-11T08:23:09.717Z,7.24
2019-04-11T08:24:10.547Z,7.44
2019-04-11T08:25:11.945Z,7.62
2019-04-11T08:26:13.674Z,7.94
2019-04-11T08:27:15.509Z,8.34
2019-04-11T08:28:16.428Z,8.88
2019-04-11T08:29:18.003Z,9.63
2019-04-11T08:30:19.040Z,10.98
2019-04-11T08:31:20.134Z,12.33
2019-04-11T08:32:22.038Z,13.71
2019-04-11T08:33:22.881Z,14.45
2019-04-11T08:34:24.284Z,15.16
2019-04-11T08:35:26.253Z,15.70
2019-04-11T08:36:27.035Z,16.13
2019-04-11T08:37:29.599Z,16.08
2019-04-11T08:38:29.801Z,16.08
2019-04-11T08:39:31.280Z,15.96
2019-04-11T08:40:33.626Z,15.49
2019-04-11T08:41:34.002Z,15.27
2019-04-11T08:42:37.286Z,14.79
2019-04-11T08:43:37.453Z,14.46
2019-04-11T08:44:38.187Z,13.93
2019-04-11T08:45:40.282Z,13.66
2019-04-11T08:46:40.941Z,13.27
2019-04-11T08:47:47.607Z,12.76
2019-04-11T08:48:44.112Z,12.38
2019-04-11T08:49:45.842Z,12.00
2019-04-11T08:50:46.988Z,11.54
2019-04-11T08:51:47.790Z,11.17
2019-04-11T08:52:49.180Z,10.65
2019-04-11T08:53:51.120Z,10.20
2019-04-11T08:54:51.950Z,9.89
2019-04-11T08:55:56.239Z,9.81
2019-04-11T08:56:55.725Z,9.63
2019-04-11T08:57:56.118Z,9.67
2019-04-11T08:58:57.405Z,9.78
2019-04-11T08:59:59.941Z,9.88
2019-04-11T09:01:00.669Z,10.04
2019-04-11T09:02:02.685Z,10.47
2019-04-11T09:03:02.918Z,10.90
2019-04-11T09:04:07.401Z,11.30
2019-04-11T09:05:12.054Z,11.97
2019-04-11T09:06:08.306Z,12.79
2019-04-11T09:07:10.184Z,13.68
2019-04-11T09:08:09.995Z,14.19
2019-04-11T09:09:11.241Z,14.90
2019-04-11T09:10:12.627Z,15.43
2019-04-11T09:11:14.829Z,16.14
2019-04-11T09:12:15.353Z,16.59
2019-04-11T09:13:17.309Z,16.98
2019-04-11T09:14:18.113Z,17.32
2019-04-11T09:15:19.525Z,17.99
2019-04-11T09:16:21.587Z,18.53
2019-04-11T09:17:23.249Z,19.01
2019-04-11T09:18:23.888Z,18.90
2019-04-11T09:19:25.106Z,18.20
2019-04-11T09:20:27.546Z,17.99
2019-04-11T09:21:28.533Z,18.04
2019-04-11T09:22:29.180Z,18.34
2019-04-11T09:23:30.529Z,18.50
2019-04-11T09:24:32.542Z,18.79
2019-04-11T09:25:33.304Z,19.02
2019-04-11T09:26:34.701Z,18.94
2019-04-11T09:27:36.504Z,18.20
2019-04-11T09:28:37.710Z,17.49
2019-04-11T09:29:39.873Z,16.85
2019-04-11T09:30:41.091Z,16.26
2019-04-11T09:31:41.958Z,16.08
2019-04-11T09:32:42.959Z,15.66
2019-04-11T09:33:44.923Z,15.23
2019-04-11T09:34:46.048Z,14.94
2019-04-11T09:35:47.154Z,14.49
2019-04-11T09:36:49.244Z,14.08
2019-04-11T09:37:49.804Z,13.62
2019-04-11T09:38:51.194Z,13.06
2019-04-11T09:39:53.106Z,12.88
2019-04-11T09:40:54.224Z,12.87
2019-04-11T09:41:56.540Z,12.76
2019-04-11T09:42:57.583Z,12.84
2019-04-11T09:43:58.123Z,12.88
2019-04-11T09:44:59.470Z,12.44
2019-04-11T09:46:01.818Z,11.85
2019-04-11T09:47:03.328Z,11.87
2019-04-11T09:48:12.609Z,11.81
2019-04-11T09:49:04.890Z,11.88
2019-04-11T09:50:06.289Z,11.93
2019-04-11T09:51:07.679Z,11.75
2019-04-11T09:52:09.111Z,11.67
2019-04-11T09:53:10.510Z,11.75
2019-04-11T09:54:12.074Z,11.66
2019-04-11T09:55:13.326Z,11.70
2019-04-11T09:56:15.182Z,11.59
2019-04-11T09:57:16.404Z,11.49
2019-04-11T09:58:17.558Z,11.19
2019-04-11T09:59:18.954Z,11.06
2019-04-11T10:00:20.700Z,10.80
2019-04-11T10:01:21.713Z,10.52
2019-04-11T10:02:23.344Z,10.46
2019-04-11T10:03:25.560Z,10.32
2019-04-11T10:04:25.833Z,10.31
2019-04-11T10:05:27.235Z,10.36
2019-04-11T10:06:28.626Z,10.32
2019-04-11T10:07:30.116Z,10.35
2019-04-11T10:08:31.372Z,10.28
2019-04-11T10:09:32.778Z,10.16
2019-04-11T10:10:35.260Z,9.98
2019-04-11T10:11:35.535Z,9.92
2019-04-11T10:12:38.198Z,9.71
2019-04-11T10:13:38.299Z,9.42
2019-04-11T10:14:39.806Z,9.41
2019-04-11T10:15:41.044Z,9.26
2019-04-11T10:16:42.451Z,9.00
2019-04-11T10:17:43.857Z,8.89
2019-04-11T10:18:45.258Z,8.93
2019-04-11T10:19:46.643Z,8.91
2019-04-11T10:20:48.692Z,9.00
2019-04-11T10:21:49.959Z,8.97
2019-04-11T10:22:50.745Z,8.94
2019-04-11T10:23:53.289Z,8.85
2019-04-11T10:24:54.544Z,8.79
2019-04-11T10:25:55.925Z,8.76
2019-04-11T10:26:56.322Z,8.82
2019-04-11T10:27:57.560Z,8.89
2019-04-11T10:29:00.166Z,8.85
2019-04-11T10:30:00.879Z,8.96
2019-04-11T10:31:02.133Z,8.94
2019-04-11T10:32:03.283Z,8.85
2019-04-11T10:33:04.536Z,8.85
2019-04-11T10:34:06.112Z,8.86
2019-04-11T10:35:08.188Z,8.85
2019-04-11T10:36:08.435Z,8.85
2019-04-11T10:37:09.840Z,8.80
2019-04-11T10:38:11.944Z,8.64
2019-04-11T10:39:13.208Z,8.96
2019-04-11T10:40:13.946Z,8.83
2019-04-11T10:41:15.339Z,9.06
2019-04-11T10:42:18.017Z,9.34
2019-04-11T10:43:18.258Z,9.52
2019-04-11T10:44:19.445Z,10.07
2019-04-11T10:45:20.851Z,10.46
2019-04-11T10:46:22.940Z,10.88
2019-04-11T10:47:24.921Z,10.87
2019-04-11T10:48:35.590Z,10.87
2019-04-11T10:49:26.357Z,10.52
2019-04-11T10:50:28.383Z,10.35
2019-04-11T10:51:29.569Z,10.13
2019-04-11T10:52:30.831Z,10.01
2019-04-11T10:53:31.812Z,9.71
2019-04-11T10:54:33.200Z,9.56
2019-04-11T10:55:35.699Z,9.48
2019-04-11T10:56:35.946Z,9.30
2019-04-11T10:57:38.257Z,8.97
2019-04-11T10:58:38.689Z,8.94
2019-04-11T10:59:40.703Z,8.89
2019-04-11T11:00:41.440Z,8.85
2019-04-11T11:01:42.832Z,8.60
2019-04-11T11:02:45.290Z,8.57
2019-04-11T11:03:45.597Z,8.32
2019-04-11T11:04:46.988Z,8.24
2019-04-11T11:05:49.303Z,8.18
2019-04-11T11:06:49.730Z,7.95
2019-04-11T11:07:51.133Z,8.00
2019-04-11T11:08:53.400Z,7.89
2019-04-11T11:09:54.569Z,7.88
2019-04-11T11:10:55.570Z,7.89
2019-04-11T11:11:56.804Z,7.73
2019-04-11T11:12:59.186Z,7.81
2019-04-11T11:14:00.405Z,7.76
2019-04-11T11:15:00.947Z,7.70
2019-04-11T11:16:02.327Z,7.74
2019-04-11T11:17:04.450Z,7.60
2019-04-11T11:18:34.954Z,7.66
2019-04-11T11:19:32.220Z,7.52
2019-04-11T11:20:16.389Z,7.60
2019-04-11T11:21:09.453Z,7.74
2019-04-11T11:22:10.679Z,7.71
2019-04-11T11:23:13.051Z,7.86
2019-04-11T11:24:13.444Z,7.85
2019-04-11T11:25:16.759Z,7.69
2019-04-11T11:26:19.872Z,7.63
2019-04-11T11:27:18.112Z,7.66
2019-04-11T11:28:18.909Z,7.58
2019-04-11T11:29:21.189Z,7.69
2019-04-11T11:30:23.082Z,7.62
2019-04-11T11:31:24.427Z,7.52
2019-04-11T11:32:25.365Z,7.67
2019-04-11T11:33:26.655Z,7.76
2019-04-11T11:34:28.430Z,7.91
2019-04-11T11:35:32.343Z,7.99
2019-04-11T11:36:34.956Z,7.96
2019-04-11T11:37:33.253Z,8.03
2019-04-11T11:38:33.666Z,8.10
2019-04-11T11:39:35.259Z,7.95
2019-04-11T11:40:38.523Z,8.00
2019-04-11T11:41:38.545Z,8.00
2019-04-11T11:42:38.879Z,7.96
2019-04-11T11:43:41.261Z,8.00
2019-04-11T11:44:41.641Z,7.94
2019-04-11T11:45:47.940Z,7.96
2019-04-11T11:46:44.634Z,8.00
2019-04-11T11:47:45.961Z,8.03
2019-04-11T11:48:49.977Z,7.95
2019-04-11T11:49:56.524Z,8.09
2019-04-11T11:50:51.365Z,7.99
2019-04-11T11:51:51.862Z,8.24
2019-04-11T11:52:53.135Z,8.47
2019-04-11T11:53:53.896Z,8.55
2019-04-11T11:54:55.720Z,8.54
2019-04-11T11:55:57.836Z,8.60
2019-04-11T11:56:58.226Z,8.64
2019-04-11T11:58:00.465Z,8.86
2019-04-11T11:59:01.095Z,8.98
2019-04-11T12:00:02.885Z,9.04
2019-04-11T12:01:05.875Z,9.23
2019-04-11T12:02:04.797Z,9.35
2019-04-11T12:03:06.182Z,9.35
2019-04-11T12:04:08.584Z,9.34
2019-04-11T12:05:12.542Z,9.40
2019-04-11T12:06:10.305Z,9.40
2019-04-11T12:07:12.610Z,9.37
2019-04-11T12:08:16.131Z,9.37
2019-04-11T12:09:14.428Z,9.27
2019-04-11T12:10:15.831Z,9.23
2019-04-11T12:11:17.819Z,9.17
2019-04-11T12:12:19.738Z,8.97
2019-04-11T12:13:19.927Z,8.89
2019-04-11T12:14:22.158Z,8.85
2019-04-11T12:15:25.291Z,8.67
2019-04-11T12:16:24.028Z,8.54
2019-04-11T12:17:25.427Z,8.37
2019-04-11T12:18:26.856Z,8.20
2019-04-11T12:19:28.893Z,8.09
2019-04-11T12:20:29.582Z,8.04
2019-04-11T12:21:31.458Z,8.07
2019-04-11T12:22:32.733Z,8.00
2019-04-11T12:23:44.779Z,7.95
2019-04-11T12:24:36.396Z,7.92
2019-04-11T12:25:36.979Z,7.89
2019-04-11T12:26:37.877Z,7.94
2019-04-11T12:27:40.043Z,7.95
2019-04-11T12:28:41.504Z,7.67
2019-04-11T12:29:46.389Z,7.60
2019-04-11T12:30:43.981Z,7.57
2019-04-11T12:31:44.551Z,7.57
2019-04-11T12:32:46.433Z,7.45
2019-04-11T12:33:47.900Z,7.47
2019-04-11T12:34:49.329Z,7.32
2019-04-11T12:35:50.672Z,7.36
2019-04-11T12:36:52.956Z,7.29
2019-04-11T12:37:53.337Z,7.23
2019-04-11T12:38:54.884Z,7.26
2019-04-11T12:39:55.427Z,7.21
2019-04-11T12:40:56.815Z,7.19
2019-04-11T12:41:58.219Z,7.15
2019-04-11T12:42:59.611Z,7.18
2019-04-11T12:44:01.047Z,7.12
2019-04-11T12:45:02.433Z,7.30
2019-04-11T12:46:03.823Z,7.27
2019-04-11T12:47:07.582Z,7.19
2019-04-11T12:48:06.562Z,7.23
2019-04-11T12:49:07.952Z,7.14
2019-04-11T12:50:09.342Z,7.12
2019-04-11T12:51:10.730Z,7.16
2019-04-11T12:52:12.122Z,7.14
2019-04-11T12:53:13.510Z,7.19
2019-04-11T12:54:14.911Z,7.21
2019-04-11T12:55:16.306Z,7.07
2019-04-11T12:56:17.704Z,7.05
2019-04-11T12:57:19.103Z,7.14
2019-04-11T12:58:20.494Z,7.07
2019-04-11T12:59:21.894Z,7.05
2019-04-11T13:00:23.285Z,6.96
2019-04-11T13:01:24.684Z,7.01
2019-04-11T13:02:26.071Z,7.01
2019-04-11T13:03:27.464Z,7.07
2019-04-11T13:04:28.851Z,6.97
2019-04-11T13:05:30.237Z,6.96
2019-04-11T13:06:35.657Z,6.90
2019-04-11T13:07:33.078Z,6.81
2019-04-11T13:08:34.333Z,6.83
2019-04-11T13:09:35.729Z,6.81
2019-04-11T13:10:37.118Z,6.81
2019-04-11T13:11:38.507Z,6.83
2019-04-11T13:12:39.893Z,6.89
2019-04-11T13:13:41.280Z,6.79
2019-04-11T13:14:42.674Z,6.83
2019-04-11T13:15:44.087Z,6.89
2019-04-11T13:16:45.483Z,6.90
2019-04-11T13:17:46.885Z,6.89
2019-04-11T13:18:48.267Z,6.87
2019-04-11T13:19:49.657Z,6.83
2019-04-11T13:20:51.043Z,6.71
2019-04-11T13:21:52.444Z,6.55
2019-04-11T13:22:53.839Z,6.53
2019-04-11T13:23:55.221Z,6.46
2019-04-11T13:24:56.614Z,6.36
2019-04-11T13:25:58.009Z,6.40
2019-04-11T13:26:59.417Z,6.30
2019-04-11T13:28:00.812Z,6.35
2019-04-11T13:29:02.213Z,6.42
2019-04-11T13:30:03.613Z,6.33
2019-04-11T13:31:04.992Z,6.38
2019-04-11T13:32:06.383Z,6.33
2019-04-11T13:33:07.786Z,6.38
2019-04-11T13:34:11.113Z,6.33
2019-04-11T13:35:10.525Z,6.32
2019-04-11T13:36:11.918Z,6.36
2019-04-11T13:37:13.325Z,6.30
2019-04-11T13:38:14.720Z,6.45